Adairo, Ohio
Current Conditions -  °F | °C
As of 8:52 AM on Tuesday 21 Oct 2014 (Local Time) from KMFD Reporting Station
Haze Haze  
Wind Chill: 42°   Ceiling: 600
Heat Index: 47°   Visibility: 6mi
Dew Point: 46°   Wind: 10mph
Humidity: 97%   Direction: 310°NW
Pressure: 29.93"   Gusts: NA
Location:  40.9484°N, 82.5121°W
Report Text: KMFD 211252Z 31009KT 6SM BR OVC006 08/08 A2993 RMK AO2 RAB31E44 SLP137 P0000 T00830078
Loading
Personal Weather Stations






























Interactive Weather Map New forecast layout! Learn more

10-Day Weather Forecast

Advertisements
Track Severe Weather on mobile